KEEN

Dillant-Hopkins Airport

Keene, New Hampshire, USA
METAR KEEN 240807Z AUTO 00000KT 1/2SM FG BKN003 07/07 A3004 RMK AO2
Observed Flight Rules
May-24 @ 08:07 UTC (4 minutes ago) Instrument Flight Rules
Visibility Clouds Conditions
1/2 miles
  • Broken at 300' AGL
  • Fog
Temperatures Readings
Current 7°C / 45°F
Dewpoint 7°C / 45°F
Humidity 100%
Altimeter 30.04" Hg
Pressure 1017 hPa
Elevation 149
METAR KEEN 240807Z AUTO 00000KT 1/2SM FG BKN003 07/07 A3004 RMK AO2
Observed Flight Rules
May-24 @ 08:07 UTC
(4 minutes ago)
LIFR
Clouds
  • Broken at 300' AGL
Conditions
  • Fog
Temperature Dewpoint
7°C / 45°F 7°C / 45°F
Humidity Altimeter Pressure
100% 30.04" Hg 1017 hPa